sensor_id;sensor_type;location;lat;lon;timestamp;temperature;humidity
10512;DHT22;5304;48.604;2.096;2023-04-03T00:00:00;7.00;99.90
10512;DHT22;5304;48.604;2.096;2023-04-03T00:02:45;7.00;99.90
10512;DHT22;5304;48.604;2.096;2023-04-03T00:05:29;6.90;99.90
10512;DHT22;5304;48.604;2.096;2023-04-03T00:08:14;6.90;99.90
10512;DHT22;5304;48.604;2.096;2023-04-03T00:10:59;6.90;99.90
10512;DHT22;5304;48.604;2.096;2023-04-03T00:13:44;6.90;99.90
10512;DHT22;5304;48.604;2.096;2023-04-03T00:16:29;6.90;99.90
10512;DHT22;5304;48.604;2.096;2023-04-03T00:19:14;6.90;99.90
10512;DHT22;5304;48.604;2.096;2023-04-03T00:21:59;6.90;99.90
10512;DHT22;5304;48.604;2.096;2023-04-03T00:24:43;6.90;99.90
10512;DHT22;5304;48.604;2.096;2023-04-03T00:27:28;6.90;99.90
10512;DHT22;5304;48.604;2.096;2023-04-03T00:30:16;6.90;99.90
10512;DHT22;5304;48.604;2.096;2023-04-03T00:33:01;6.90;99.90
10512;DHT22;5304;48.604;2.096;2023-04-03T00:35:45;6.90;99.90
10512;DHT22;5304;48.604;2.096;2023-04-03T00:38:30;6.90;99.90
10512;DHT22;5304;48.604;2.096;2023-04-03T00:41:15;6.90;99.90
10512;DHT22;5304;48.604;2.096;2023-04-03T00:43:59;6.90;99.90
10512;DHT22;5304;48.604;2.096;2023-04-03T00:46:44;6.90;99.90
10512;DHT22;5304;48.604;2.096;2023-04-03T00:49:29;6.90;99.90
10512;DHT22;5304;48.604;2.096;2023-04-03T00:52:16;6.90;99.90
10512;DHT22;5304;48.604;2.096;2023-04-03T00:55:05;6.90;99.90
10512;DHT22;5304;48.604;2.096;2023-04-03T00:57:51;6.80;99.90
10512;DHT22;5304;48.604;2.096;2023-04-03T01:00:40;6.80;99.90
10512;DHT22;5304;48.604;2.096;2023-04-03T01:03:26;6.80;99.90
10512;DHT22;5304;48.604;2.096;2023-04-03T01:06:11;6.80;99.90
10512;DHT22;5304;48.604;2.096;2023-04-03T01:08:56;6.80;99.90
10512;DHT22;5304;48.604;2.096;2023-04-03T01:11:41;6.80;99.90
10512;DHT22;5304;48.604;2.096;2023-04-03T01:14:25;6.80;99.90
10512;DHT22;5304;48.604;2.096;2023-04-03T01:17:33;6.90;99.90
10512;DHT22;5304;48.604;2.096;2023-04-03T01:23:48;6.90;99.90
10512;DHT22;5304;48.604;2.096;2023-04-03T01:26:35;6.90;99.90
10512;DHT22;5304;48.604;2.096;2023-04-03T01:29:20;6.90;99.90
10512;DHT22;5304;48.604;2.096;2023-04-03T01:32:04;6.90;99.90
10512;DHT22;5304;48.604;2.096;2023-04-03T01:34:48;6.80;99.90
10512;DHT22;5304;48.604;2.096;2023-04-03T01:37:33;6.80;99.90
10512;DHT22;5304;48.604;2.096;2023-04-03T01:40:18;6.80;99.90
10512;DHT22;5304;48.604;2.096;2023-04-03T01:43:02;6.80;99.90
10512;DHT22;5304;48.604;2.096;2023-04-03T01:45:47;6.80;99.90
10512;DHT22;5304;48.604;2.096;2023-04-03T01:48:33;6.80;99.90
10512;DHT22;5304;48.604;2.096;2023-04-03T01:51:18;6.80;99.90
10512;DHT22;5304;48.604;2.096;2023-04-03T01:54:03;6.70;99.90
10512;DHT22;5304;48.604;2.096;2023-04-03T01:56:47;6.80;99.90
10512;DHT22;5304;48.604;2.096;2023-04-03T01:59:32;6.80;99.90
10512;DHT22;5304;48.604;2.096;2023-04-03T02:02:16;6.70;99.90
10512;DHT22;5304;48.604;2.096;2023-04-03T02:05:01;6.70;99.90
10512;DHT22;5304;48.604;2.096;2023-04-03T02:07:45;6.70;99.90
10512;DHT22;5304;48.604;2.096;2023-04-03T02:10:30;6.70;99.90
10512;DHT22;5304;48.604;2.096;2023-04-03T02:13:15;6.70;99.90
10512;DHT22;5304;48.604;2.096;2023-04-03T02:16:05;6.70;99.90
10512;DHT22;5304;48.604;2.096;2023-04-03T02:18:49;6.70;99.90
10512;DHT22;5304;48.604;2.096;2023-04-03T02:21:34;6.70;99.90
10512;DHT22;5304;48.604;2.096;2023-04-03T02:24:19;6.60;99.90
10512;DHT22;5304;48.604;2.096;2023-04-03T02:27:03;6.60;99.90
10512;DHT22;5304;48.604;2.096;2023-04-03T02:29:48;6.60;99.90
10512;DHT22;5304;48.604;2.096;2023-04-03T02:32:33;6.60;99.90
10512;DHT22;5304;48.604;2.096;2023-04-03T02:35:17;6.60;99.90
10512;DHT22;5304;48.604;2.096;2023-04-03T02:38:01;6.70;99.90
10512;DHT22;5304;48.604;2.096;2023-04-03T02:40:46;6.60;99.90
10512;DHT22;5304;48.604;2.096;2023-04-03T02:43:30;6.70;99.90
10512;DHT22;5304;48.604;2.096;2023-04-03T02:46:15;6.70;99.90
10512;DHT22;5304;48.604;2.096;2023-04-03T02:48:59;6.70;99.90
10512;DHT22;5304;48.604;2.096;2023-04-03T02:51:44;6.70;99.90
10512;DHT22;5304;48.604;2.096;2023-04-03T02:54:30;6.70;99.90
10512;DHT22;5304;48.604;2.096;2023-04-03T02:57:14;6.70;99.90
10512;DHT22;5304;48.604;2.096;2023-04-03T02:59:59;6.70;99.90
10512;DHT22;5304;48.604;2.096;2023-04-03T03:02:43;6.80;99.90
10512;DHT22;5304;48.604;2.096;2023-04-03T03:05:28;6.70;99.90
10512;DHT22;5304;48.604;2.096;2023-04-03T03:08:13;6.70;99.90
10512;DHT22;5304;48.604;2.096;2023-04-03T03:10:58;6.60;99.90
10512;DHT22;5304;48.604;2.096;2023-04-03T03:13:42;6.70;99.90
10512;DHT22;5304;48.604;2.096;2023-04-03T03:16:26;6.70;99.90
10512;DHT22;5304;48.604;2.096;2023-04-03T03:19:12;6.70;99.90
10512;DHT22;5304;48.604;2.096;2023-04-03T03:21:57;6.70;99.90
10512;DHT22;5304;48.604;2.096;2023-04-03T03:24:41;6.70;99.90
10512;DHT22;5304;48.604;2.096;2023-04-03T03:27:26;6.80;99.90
10512;DHT22;5304;48.604;2.096;2023-04-03T03:30:11;6.70;99.90
10512;DHT22;5304;48.604;2.096;2023-04-03T03:32:56;6.60;99.90
10512;DHT22;5304;48.604;2.096;2023-04-03T03:35:40;6.60;99.90
10512;DHT22;5304;48.604;2.096;2023-04-03T03:38:26;6.60;99.90
10512;DHT22;5304;48.604;2.096;2023-04-03T03:41:10;6.60;99.90
10512;DHT22;5304;48.604;2.096;2023-04-03T03:43:55;6.60;99.90
10512;DHT22;5304;48.604;2.096;2023-04-03T03:46:40;6.60;99.90
10512;DHT22;5304;48.604;2.096;2023-04-03T03:49:24;6.60;99.90
10512;DHT22;5304;48.604;2.096;2023-04-03T03:52:09;6.50;99.90
10512;DHT22;5304;48.604;2.096;2023-04-03T03:54:54;6.50;99.90
10512;DHT22;5304;48.604;2.096;2023-04-03T03:57:39;6.50;99.90
10512;DHT22;5304;48.604;2.096;2023-04-03T04:00:23;6.50;99.90
10512;DHT22;5304;48.604;2.096;2023-04-03T04:03:10;6.50;99.90
10512;DHT22;5304;48.604;2.096;2023-04-03T04:05:55;6.50;99.90
10512;DHT22;5304;48.604;2.096;2023-04-03T04:08:40;6.50;99.90
10512;DHT22;5304;48.604;2.096;2023-04-03T04:11:25;6.50;99.90
10512;DHT22;5304;48.604;2.096;2023-04-03T04:14:09;6.50;99.90
10512;DHT22;5304;48.604;2.096;2023-04-03T04:16:56;6.50;99.90
10512;DHT22;5304;48.604;2.096;2023-04-03T04:19:41;6.50;99.90
10512;DHT22;5304;48.604;2.096;2023-04-03T04:22:25;6.50;99.90
10512;DHT22;5304;48.604;2.096;2023-04-03T04:25:10;6.50;99.90
10512;DHT22;5304;48.604;2.096;2023-04-03T04:27:54;6.50;99.90
10512;DHT22;5304;48.604;2.096;2023-04-03T04:30:38;6.50;99.90
10512;DHT22;5304;48.604;2.096;2023-04-03T04:33:23;6.50;99.90
10512;DHT22;5304;48.604;2.096;2023-04-03T04:36:08;6.40;99.90
10512;DHT22;5304;48.604;2.096;2023-04-03T04:38:52;6.40;99.90
10512;DHT22;5304;48.604;2.096;2023-04-03T04:41:37;6.50;99.90
10512;DHT22;5304;48.604;2.096;2023-04-03T04:44:21;6.50;99.90
10512;DHT22;5304;48.604;2.096;2023-04-03T04:47:06;6.50;99.90
10512;DHT22;5304;48.604;2.096;2023-04-03T04:49:50;6.50;99.90
10512;DHT22;5304;48.604;2.096;2023-04-03T04:52:34;6.50;99.90
10512;DHT22;5304;48.604;2.096;2023-04-03T04:55:19;6.50;99.90
10512;DHT22;5304;48.604;2.096;2023-04-03T04:58:04;6.40;99.90
10512;DHT22;5304;48.604;2.096;2023-04-03T05:00:49;6.50;99.90
10512;DHT22;5304;48.604;2.096;2023-04-03T05:03:33;6.50;99.90
10512;DHT22;5304;48.604;2.096;2023-04-03T05:06:17;6.40;99.90
10512;DHT22;5304;48.604;2.096;2023-04-03T05:09:02;6.40;99.90
10512;DHT22;5304;48.604;2.096;2023-04-03T05:11:46;6.40;99.90
10512;DHT22;5304;48.604;2.096;2023-04-03T05:14:31;6.40;99.90
10512;DHT22;5304;48.604;2.096;2023-04-03T05:17:15;6.40;99.90
10512;DHT22;5304;48.604;2.096;2023-04-03T05:20:00;6.40;99.90
10512;DHT22;5304;48.604;2.096;2023-04-03T05:22:44;6.40;99.90
10512;DHT22;5304;48.604;2.096;2023-04-03T05:25:28;6.40;99.90
10512;DHT22;5304;48.604;2.096;2023-04-03T05:28:13;6.40;99.90
10512;DHT22;5304;48.604;2.096;2023-04-03T05:30:59;6.40;99.90
10512;DHT22;5304;48.604;2.096;2023-04-03T05:33:43;6.40;99.90
10512;DHT22;5304;48.604;2.096;2023-04-03T05:36:28;6.40;99.90
10512;DHT22;5304;48.604;2.096;2023-04-03T05:39:13;6.40;99.90
10512;DHT22;5304;48.604;2.096;2023-04-03T05:41:57;6.40;99.90
10512;DHT22;5304;48.604;2.096;2023-04-03T05:44:41;6.40;99.90
10512;DHT22;5304;48.604;2.096;2023-04-03T05:47:26;6.50;99.90
10512;DHT22;5304;48.604;2.096;2023-04-03T05:50:10;6.50;99.90
10512;DHT22;5304;48.604;2.096;2023-04-03T05:52:57;6.50;99.90
10512;DHT22;5304;48.604;2.096;2023-04-03T05:55:42;6.50;99.90
10512;DHT22;5304;48.604;2.096;2023-04-03T05:58:27;6.60;99.90
10512;DHT22;5304;48.604;2.096;2023-04-03T06:01:11;6.60;99.90
10512;DHT22;5304;48.604;2.096;2023-04-03T06:03:56;6.60;99.90
10512;DHT22;5304;48.604;2.096;2023-04-03T06:06:48;6.60;99.90
10512;DHT22;5304;48.604;2.096;2023-04-03T06:09:33;6.60;99.90
10512;DHT22;5304;48.604;2.096;2023-04-03T06:12:19;6.50;99.90
10512;DHT22;5304;48.604;2.096;2023-04-03T06:15:04;6.50;99.90
10512;DHT22;5304;48.604;2.096;2023-04-03T06:17:48;6.60;99.90
10512;DHT22;5304;48.604;2.096;2023-04-03T06:20:33;6.60;99.90
10512;DHT22;5304;48.604;2.096;2023-04-03T06:23:17;6.60;99.90
10512;DHT22;5304;48.604;2.096;2023-04-03T06:26:03;6.70;99.90
10512;DHT22;5304;48.604;2.096;2023-04-03T06:28:47;6.60;99.90
10512;DHT22;5304;48.604;2.096;2023-04-03T06:31:31;6.50;99.90
10512;DHT22;5304;48.604;2.096;2023-04-03T06:34:16;6.50;99.90
10512;DHT22;5304;48.604;2.096;2023-04-03T06:37:02;6.50;99.90
10512;DHT22;5304;48.604;2.096;2023-04-03T06:39:47;6.50;99.90
10512;DHT22;5304;48.604;2.096;2023-04-03T06:42:31;6.50;99.90
10512;DHT22;5304;48.604;2.096;2023-04-03T06:45:16;6.50;99.90
10512;DHT22;5304;48.604;2.096;2023-04-03T06:48:00;6.50;99.90
10512;DHT22;5304;48.604;2.096;2023-04-03T06:50:45;6.50;99.90
10512;DHT22;5304;48.604;2.096;2023-04-03T06:53:29;6.60;99.90
10512;DHT22;5304;48.604;2.096;2023-04-03T06:56:14;6.60;99.90
10512;DHT22;5304;48.604;2.096;2023-04-03T06:58:59;6.60;99.90
10512;DHT22;5304;48.604;2.096;2023-04-03T07:01:43;6.70;99.90
10512;DHT22;5304;48.604;2.096;2023-04-03T07:04:28;6.70;99.90
10512;DHT22;5304;48.604;2.096;2023-04-03T07:07:12;6.70;99.90
10512;DHT22;5304;48.604;2.096;2023-04-03T07:09:56;6.80;99.90
10512;DHT22;5304;48.604;2.096;2023-04-03T07:12:42;6.80;99.90
10512;DHT22;5304;48.604;2.096;2023-04-03T07:15:26;6.80;99.90
10512;DHT22;5304;48.604;2.096;2023-04-03T07:18:10;6.60;99.90
10512;DHT22;5304;48.604;2.096;2023-04-03T07:20:55;6.60;99.90
10512;DHT22;5304;48.604;2.096;2023-04-03T07:23:40;6.60;99.90
10512;DHT22;5304;48.604;2.096;2023-04-03T07:26:24;6.70;99.90
10512;DHT22;5304;48.604;2.096;2023-04-03T07:29:10;6.70;99.90
10512;DHT22;5304;48.604;2.096;2023-04-03T07:31:55;6.70;99.90
10512;DHT22;5304;48.604;2.096;2023-04-03T07:34:40;6.70;99.90
10512;DHT22;5304;48.604;2.096;2023-04-03T07:37:24;6.70;99.90
10512;DHT22;5304;48.604;2.096;2023-04-03T07:40:09;6.80;99.90
10512;DHT22;5304;48.604;2.096;2023-04-03T07:42:54;6.80;99.90
10512;DHT22;5304;48.604;2.096;2023-04-03T07:45:40;6.80;99.90
10512;DHT22;5304;48.604;2.096;2023-04-03T07:48:25;6.90;99.90
10512;DHT22;5304;48.604;2.096;2023-04-03T07:51:10;6.90;99.90
10512;DHT22;5304;48.604;2.096;2023-04-03T07:53:55;7.10;99.90
10512;DHT22;5304;48.604;2.096;2023-04-03T07:56:39;7.00;99.90
10512;DHT22;5304;48.604;2.096;2023-04-03T07:59:24;7.00;99.90
10512;DHT22;5304;48.604;2.096;2023-04-03T08:02:12;7.10;99.90
10512;DHT22;5304;48.604;2.096;2023-04-03T08:04:56;7.00;99.90
10512;DHT22;5304;48.604;2.096;2023-04-03T08:07:41;7.10;99.90
10512;DHT22;5304;48.604;2.096;2023-04-03T08:10:25;7.20;99.90
10512;DHT22;5304;48.604;2.096;2023-04-03T08:13:10;7.30;99.90
10512;DHT22;5304;48.604;2.096;2023-04-03T08:15:54;7.50;99.90
10512;DHT22;5304;48.604;2.096;2023-04-03T08:18:41;7.50;99.90
10512;DHT22;5304;48.604;2.096;2023-04-03T08:21:25;7.60;99.90
10512;DHT22;5304;48.604;2.096;2023-04-03T08:24:10;7.60;99.90
10512;DHT22;5304;48.604;2.096;2023-04-03T08:26:55;7.70;99.90
10512;DHT22;5304;48.604;2.096;2023-04-03T08:29:39;7.80;99.90
10512;DHT22;5304;48.604;2.096;2023-04-03T08:32:24;8.00;99.90
10512;DHT22;5304;48.604;2.096;2023-04-03T08:35:09;8.20;99.90
10512;DHT22;5304;48.604;2.096;2023-04-03T08:37:54;8.40;99.90
10512;DHT22;5304;48.604;2.096;2023-04-03T08:40:40;8.40;99.90
10512;DHT22;5304;48.604;2.096;2023-04-03T08:43:30;8.50;99.90
10512;DHT22;5304;48.604;2.096;2023-04-03T08:46:22;8.70;99.90
10512;DHT22;5304;48.604;2.096;2023-04-03T08:49:33;8.80;99.90
10512;DHT22;5304;48.604;2.096;2023-04-03T08:52:25;8.70;99.90
10512;DHT22;5304;48.604;2.096;2023-04-03T08:55:27;8.60;99.90
10512;DHT22;5304;48.604;2.096;2023-04-03T08:58:22;8.50;99.90
10512;DHT22;5304;48.604;2.096;2023-04-03T09:01:23;8.50;99.90
10512;DHT22;5304;48.604;2.096;2023-04-03T09:04:13;8.50;99.90
10512;DHT22;5304;48.604;2.096;2023-04-03T09:07:04;8.60;99.90
10512;DHT22;5304;48.604;2.096;2023-04-03T09:09:51;8.60;99.90
10512;DHT22;5304;48.604;2.096;2023-04-03T09:12:49;8.50;99.90
10512;DHT22;5304;48.604;2.096;2023-04-03T09:15:34;8.70;99.90
10512;DHT22;5304;48.604;2.096;2023-04-03T09:18:22;8.70;99.90
10512;DHT22;5304;48.604;2.096;2023-04-03T09:21:19;8.80;99.90
10512;DHT22;5304;48.604;2.096;2023-04-03T09:24:06;8.70;99.90
10512;DHT22;5304;48.604;2.096;2023-04-03T09:26:59;8.80;99.90
10512;DHT22;5304;48.604;2.096;2023-04-03T09:29:46;9.00;99.90
10512;DHT22;5304;48.604;2.096;2023-04-03T09:32:33;8.90;99.90
10512;DHT22;5304;48.604;2.096;2023-04-03T09:35:32;9.10;99.90
10512;DHT22;5304;48.604;2.096;2023-04-03T09:38:20;9.10;99.90
10512;DHT22;5304;48.604;2.096;2023-04-03T09:41:07;8.90;99.90
10512;DHT22;5304;48.604;2.096;2023-04-03T09:43:57;8.80;99.90
10512;DHT22;5304;48.604;2.096;2023-04-03T09:46:41;8.90;99.90
10512;DHT22;5304;48.604;2.096;2023-04-03T09:49:27;8.80;99.90
10512;DHT22;5304;48.604;2.096;2023-04-03T09:52:23;9.10;99.90
10512;DHT22;5304;48.604;2.096;2023-04-03T09:58:03;9.90;99.90
10512;DHT22;5304;48.604;2.096;2023-04-03T10:00:57;10.50;99.90
10512;DHT22;5304;48.604;2.096;2023-04-03T10:03:43;10.10;99.90
10512;DHT22;5304;48.604;2.096;2023-04-03T10:06:33;9.70;99.90
10512;DHT22;5304;48.604;2.096;2023-04-03T10:09:25;9.30;99.90
10512;DHT22;5304;48.604;2.096;2023-04-03T10:12:11;9.40;99.90
10512;DHT22;5304;48.604;2.096;2023-04-03T10:14:59;9.80;99.90
10512;DHT22;5304;48.604;2.096;2023-04-03T10:17:53;10.00;99.90
10512;DHT22;5304;48.604;2.096;2023-04-03T10:20:43;10.30;99.90
10512;DHT22;5304;48.604;2.096;2023-04-03T10:23:54;10.70;99.90
10512;DHT22;5304;48.604;2.096;2023-04-03T10:27:03;10.90;99.90
10512;DHT22;5304;48.604;2.096;2023-04-03T10:36:43;10.70;99.90
10512;DHT22;5304;48.604;2.096;2023-04-03T10:42:41;10.10;99.90
10512;DHT22;5304;48.604;2.096;2023-04-03T10:49:22;10.80;99.90
10512;DHT22;5304;48.604;2.096;2023-04-03T10:52:38;11.00;99.90
10512;DHT22;5304;48.604;2.096;2023-04-03T10:55:42;10.30;99.90
10512;DHT22;5304;48.604;2.096;2023-04-03T10:58:34;10.70;99.90
10512;DHT22;5304;48.604;2.096;2023-04-03T11:01:22;11.00;99.90
10512;DHT22;5304;48.604;2.096;2023-04-03T11:04:09;11.00;99.90
10512;DHT22;5304;48.604;2.096;2023-04-03T11:07:02;11.00;99.90
10512;DHT22;5304;48.604;2.096;2023-04-03T11:09:54;11.30;99.90
10512;DHT22;5304;48.604;2.096;2023-04-03T11:13:09;11.20;99.90
10512;DHT22;5304;48.604;2.096;2023-04-03T11:15:56;11.20;99.90
10512;DHT22;5304;48.604;2.096;2023-04-03T11:24:40;11.30;99.90
10512;DHT22;5304;48.604;2.096;2023-04-03T11:27:53;11.30;99.90
10512;DHT22;5304;48.604;2.096;2023-04-03T11:33:31;11.40;99.90
10512;DHT22;5304;48.604;2.096;2023-04-03T11:36:19;11.30;99.90
10512;DHT22;5304;48.604;2.096;2023-04-03T11:39:31;11.20;99.90
10512;DHT22;5304;48.604;2.096;2023-04-03T11:42:39;11.30;99.90
10512;DHT22;5304;48.604;2.096;2023-04-03T11:54:43;11.50;99.90
10512;DHT22;5304;48.604;2.096;2023-04-03T11:58:31;11.40;99.90
10512;DHT22;5304;48.604;2.096;2023-04-03T12:00:53;11.50;99.90
10512;DHT22;5304;48.604;2.096;2023-04-03T12:09:33;12.10;99.90
10512;DHT22;5304;48.604;2.096;2023-04-03T12:12:32;12.40;99.90
10512;DHT22;5304;48.604;2.096;2023-04-03T12:15:25;12.40;99.90
10512;DHT22;5304;48.604;2.096;2023-04-03T12:36:11;12.10;99.90
10512;DHT22;5304;48.604;2.096;2023-04-03T12:42:21;12.40;99.90
10512;DHT22;5304;48.604;2.096;2023-04-03T12:45:24;12.50;99.90
10512;DHT22;5304;48.604;2.096;2023-04-03T12:48:15;12.60;99.90
10512;DHT22;5304;48.604;2.096;2023-04-03T12:51:01;12.60;99.90
10512;DHT22;5304;48.604;2.096;2023-04-03T12:53:46;12.50;99.90
10512;DHT22;5304;48.604;2.096;2023-04-03T12:56:32;12.40;99.90
10512;DHT22;5304;48.604;2.096;2023-04-03T12:59:22;12.60;99.90
10512;DHT22;5304;48.604;2.096;2023-04-03T13:02:19;12.60;99.90
10512;DHT22;5304;48.604;2.096;2023-04-03T13:05:09;12.50;99.90
10512;DHT22;5304;48.604;2.096;2023-04-03T13:08:09;12.60;99.90
10512;DHT22;5304;48.604;2.096;2023-04-03T13:11:07;12.70;99.90
10512;DHT22;5304;48.604;2.096;2023-04-03T13:14:02;12.60;99.90
10512;DHT22;5304;48.604;2.096;2023-04-03T13:19:54;12.60;99.90
10512;DHT22;5304;48.604;2.096;2023-04-03T13:22:56;12.70;99.90
10512;DHT22;5304;48.604;2.096;2023-04-03T13:25:43;12.70;99.90
10512;DHT22;5304;48.604;2.096;2023-04-03T13:28:31;12.50;99.90
10512;DHT22;5304;48.604;2.096;2023-04-03T13:31:26;12.70;99.90
10512;DHT22;5304;48.604;2.096;2023-04-03T13:34:13;13.00;99.90
10512;DHT22;5304;48.604;2.096;2023-04-03T13:37:01;13.10;99.90
10512;DHT22;5304;48.604;2.096;2023-04-03T13:40:14;13.20;99.90
10512;DHT22;5304;48.604;2.096;2023-04-03T13:43:16;13.20;99.90
10512;DHT22;5304;48.604;2.096;2023-04-03T13:48:56;12.90;99.90
10512;DHT22;5304;48.604;2.096;2023-04-03T13:51:41;12.80;99.90
10512;DHT22;5304;48.604;2.096;2023-04-03T13:54:32;12.90;99.90
10512;DHT22;5304;48.604;2.096;2023-04-03T13:57:17;13.00;99.90
10512;DHT22;5304;48.604;2.096;2023-04-03T14:03:40;13.10;99.90
10512;DHT22;5304;48.604;2.096;2023-04-03T14:06:25;13.10;99.90
10512;DHT22;5304;48.604;2.096;2023-04-03T14:09:10;13.00;99.90
10512;DHT22;5304;48.604;2.096;2023-04-03T14:11:59;13.10;99.90
10512;DHT22;5304;48.604;2.096;2023-04-03T14:14:45;13.10;99.90
10512;DHT22;5304;48.604;2.096;2023-04-03T14:17:30;13.10;99.90
10512;DHT22;5304;48.604;2.096;2023-04-03T14:20:20;13.30;99.90
10512;DHT22;5304;48.604;2.096;2023-04-03T14:23:05;13.30;99.90
10512;DHT22;5304;48.604;2.096;2023-04-03T14:25:50;13.10;99.90
10512;DHT22;5304;48.604;2.096;2023-04-03T14:28:35;13.10;99.90
10512;DHT22;5304;48.604;2.096;2023-04-03T14:31:20;13.20;99.90
10512;DHT22;5304;48.604;2.096;2023-04-03T14:34:05;13.00;99.90
10512;DHT22;5304;48.604;2.096;2023-04-03T14:36:49;13.00;99.90
10512;DHT22;5304;48.604;2.096;2023-04-03T14:39:34;12.90;99.90
10512;DHT22;5304;48.604;2.096;2023-04-03T14:42:26;12.80;99.90
10512;DHT22;5304;48.604;2.096;2023-04-03T14:45:13;12.80;99.90
10512;DHT22;5304;48.604;2.096;2023-04-03T14:47:58;12.70;99.90
10512;DHT22;5304;48.604;2.096;2023-04-03T14:50:43;12.70;99.90
10512;DHT22;5304;48.604;2.096;2023-04-03T14:53:27;12.90;99.90
10512;DHT22;5304;48.604;2.096;2023-04-03T14:56:26;12.80;99.90
10512;DHT22;5304;48.604;2.096;2023-04-03T14:59:13;12.80;99.90
10512;DHT22;5304;48.604;2.096;2023-04-03T15:01:58;12.80;99.90
10512;DHT22;5304;48.604;2.096;2023-04-03T15:04:42;12.80;99.90
10512;DHT22;5304;48.604;2.096;2023-04-03T15:07:29;12.70;99.90
10512;DHT22;5304;48.604;2.096;2023-04-03T15:10:19;12.60;99.90
10512;DHT22;5304;48.604;2.096;2023-04-03T15:13:04;12.50;99.90
10512;DHT22;5304;48.604;2.096;2023-04-03T15:15:50;12.60;99.90
10512;DHT22;5304;48.604;2.096;2023-04-03T15:18:38;12.60;99.90
10512;DHT22;5304;48.604;2.096;2023-04-03T15:21:22;12.60;99.90
10512;DHT22;5304;48.604;2.096;2023-04-03T15:24:08;12.60;99.90
10512;DHT22;5304;48.604;2.096;2023-04-03T15:26:52;12.60;99.90
10512;DHT22;5304;48.604;2.096;2023-04-03T15:29:38;12.40;99.90
10512;DHT22;5304;48.604;2.096;2023-04-03T15:32:23;12.50;99.90
10512;DHT22;5304;48.604;2.096;2023-04-03T15:35:08;12.50;99.90
10512;DHT22;5304;48.604;2.096;2023-04-03T15:37:53;12.60;99.90
10512;DHT22;5304;48.604;2.096;2023-04-03T15:40:38;12.60;99.90
10512;DHT22;5304;48.604;2.096;2023-04-03T15:43:22;12.40;99.90
10512;DHT22;5304;48.604;2.096;2023-04-03T15:46:07;12.40;99.90
10512;DHT22;5304;48.604;2.096;2023-04-03T15:48:51;12.20;99.90
10512;DHT22;5304;48.604;2.096;2023-04-03T15:51:36;12.20;99.90
10512;DHT22;5304;48.604;2.096;2023-04-03T15:54:20;12.30;99.90
10512;DHT22;5304;48.604;2.096;2023-04-03T15:57:05;12.20;99.90
10512;DHT22;5304;48.604;2.096;2023-04-03T15:59:50;12.30;99.90
10512;DHT22;5304;48.604;2.096;2023-04-03T16:02:34;12.30;99.90
10512;DHT22;5304;48.604;2.096;2023-04-03T16:05:19;12.20;99.90
10512;DHT22;5304;48.604;2.096;2023-04-03T16:08:05;12.10;99.90
10512;DHT22;5304;48.604;2.096;2023-04-03T16:10:50;12.10;99.90
10512;DHT22;5304;48.604;2.096;2023-04-03T16:13:35;12.10;99.90
10512;DHT22;5304;48.604;2.096;2023-04-03T16:16:19;12.00;99.90
10512;DHT22;5304;48.604;2.096;2023-04-03T16:19:04;11.90;99.90
10512;DHT22;5304;48.604;2.096;2023-04-03T16:21:49;11.80;99.90
10512;DHT22;5304;48.604;2.096;2023-04-03T16:24:34;11.80;99.90
10512;DHT22;5304;48.604;2.096;2023-04-03T16:27:20;11.70;99.90
10512;DHT22;5304;48.604;2.096;2023-04-03T16:30:06;11.70;99.90
10512;DHT22;5304;48.604;2.096;2023-04-03T16:32:51;11.70;99.90
10512;DHT22;5304;48.604;2.096;2023-04-03T16:35:36;11.60;99.90
10512;DHT22;5304;48.604;2.096;2023-04-03T16:38:21;11.60;99.90
10512;DHT22;5304;48.604;2.096;2023-04-03T16:41:06;11.60;99.90
10512;DHT22;5304;48.604;2.096;2023-04-03T16:43:50;11.50;99.90
10512;DHT22;5304;48.604;2.096;2023-04-03T16:46:35;11.60;99.90
10512;DHT22;5304;48.604;2.096;2023-04-03T16:49:19;11.60;99.90
10512;DHT22;5304;48.604;2.096;2023-04-03T16:52:05;11.60;99.90
10512;DHT22;5304;48.604;2.096;2023-04-03T16:54:49;11.40;99.90
10512;DHT22;5304;48.604;2.096;2023-04-03T16:57:38;11.40;99.90
10512;DHT22;5304;48.604;2.096;2023-04-03T17:00:23;11.30;99.90
10512;DHT22;5304;48.604;2.096;2023-04-03T17:03:07;11.30;99.90
10512;DHT22;5304;48.604;2.096;2023-04-03T17:05:52;11.20;99.90
10512;DHT22;5304;48.604;2.096;2023-04-03T17:08:36;11.20;99.90
10512;DHT22;5304;48.604;2.096;2023-04-03T17:11:21;11.20;99.90
10512;DHT22;5304;48.604;2.096;2023-04-03T17:14:05;11.10;99.90
10512;DHT22;5304;48.604;2.096;2023-04-03T17:16:50;11.20;99.90
10512;DHT22;5304;48.604;2.096;2023-04-03T17:19:37;11.10;99.90
10512;DHT22;5304;48.604;2.096;2023-04-03T17:22:22;11.10;99.90
10512;DHT22;5304;48.604;2.096;2023-04-03T17:25:06;11.00;99.90
10512;DHT22;5304;48.604;2.096;2023-04-03T17:27:54;11.00;99.90
10512;DHT22;5304;48.604;2.096;2023-04-03T17:30:39;10.90;99.90
10512;DHT22;5304;48.604;2.096;2023-04-03T17:33:24;10.80;99.90
10512;DHT22;5304;48.604;2.096;2023-04-03T17:36:09;10.80;99.90
10512;DHT22;5304;48.604;2.096;2023-04-03T17:38:53;10.80;99.90
10512;DHT22;5304;48.604;2.096;2023-04-03T17:41:38;10.80;99.90
10512;DHT22;5304;48.604;2.096;2023-04-03T17:44:22;10.70;99.90
10512;DHT22;5304;48.604;2.096;2023-04-03T17:47:08;10.70;99.90
10512;DHT22;5304;48.604;2.096;2023-04-03T17:49:52;10.60;99.90
10512;DHT22;5304;48.604;2.096;2023-04-03T17:52:37;10.50;99.90
10512;DHT22;5304;48.604;2.096;2023-04-03T17:55:22;10.50;99.90
10512;DHT22;5304;48.604;2.096;2023-04-03T17:58:06;10.50;99.90
10512;DHT22;5304;48.604;2.096;2023-04-03T18:00:51;10.40;99.90
10512;DHT22;5304;48.604;2.096;2023-04-03T18:03:37;10.30;99.90
10512;DHT22;5304;48.604;2.096;2023-04-03T18:06:26;10.30;99.90
10512;DHT22;5304;48.604;2.096;2023-04-03T18:09:15;10.30;99.90
10512;DHT22;5304;48.604;2.096;2023-04-03T18:12:03;10.20;99.90
10512;DHT22;5304;48.604;2.096;2023-04-03T18:14:48;10.10;99.90
10512;DHT22;5304;48.604;2.096;2023-04-03T18:17:33;10.00;99.90
10512;DHT22;5304;48.604;2.096;2023-04-03T18:20:17;9.90;99.90
10512;DHT22;5304;48.604;2.096;2023-04-03T18:23:02;9.80;99.90
10512;DHT22;5304;48.604;2.096;2023-04-03T18:25:47;9.80;99.90
10512;DHT22;5304;48.604;2.096;2023-04-03T18:28:31;9.70;99.90
10512;DHT22;5304;48.604;2.096;2023-04-03T18:31:16;9.70;99.90
10512;DHT22;5304;48.604;2.096;2023-04-03T18:34:01;9.70;99.90
10512;DHT22;5304;48.604;2.096;2023-04-03T18:36:46;9.70;99.90
10512;DHT22;5304;48.604;2.096;2023-04-03T18:39:30;9.60;99.90
10512;DHT22;5304;48.604;2.096;2023-04-03T18:42:18;9.50;99.90
10512;DHT22;5304;48.604;2.096;2023-04-03T18:45:05;9.40;99.90
10512;DHT22;5304;48.604;2.096;2023-04-03T18:47:49;9.30;99.90
10512;DHT22;5304;48.604;2.096;2023-04-03T18:50:34;9.30;99.90
10512;DHT22;5304;48.604;2.096;2023-04-03T18:53:19;9.20;99.90
10512;DHT22;5304;48.604;2.096;2023-04-03T18:56:04;9.20;99.90
10512;DHT22;5304;48.604;2.096;2023-04-03T18:58:49;9.10;99.90
10512;DHT22;5304;48.604;2.096;2023-04-03T19:01:34;9.00;99.90
10512;DHT22;5304;48.604;2.096;2023-04-03T19:04:18;8.90;99.90
10512;DHT22;5304;48.604;2.096;2023-04-03T19:07:03;8.90;99.90
10512;DHT22;5304;48.604;2.096;2023-04-03T19:09:49;8.80;99.90
10512;DHT22;5304;48.604;2.096;2023-04-03T19:12:33;8.80;99.90
10512;DHT22;5304;48.604;2.096;2023-04-03T19:15:20;8.80;99.90